Depauville, New York
Current Conditions -  °F | °C
As of 10:56 AM on Friday 24 Oct 2014 (Local Time) from KART Reporting Station
Clear Clear  
Wind Chill: 55°   Ceiling: Unl
Heat Index: 55°   Visibility: 10mi
Dew Point: 38°   Wind: 5mph
Humidity: 53%   Direction: 330°NNW
Pressure: 29.93"   Gusts: NA
Location:  44.14°N, 76.07°W
Report Text: KART 241456Z AUTO 33004KT 10SM CLR 13/03 A2993 RMK AO2 SLP135 T01280033 58002
Loading
Personal Weather Stations






























Interactive Weather Map
Tropical Storm Tracking
New forecast layout! Learn more

10-Day Weather Forecast

Advertisements
Track Severe Weather on mobile